M I D A S
Marine Information and Data Acquisition System
Tripno 2116 of the Zeeleeuw from 2011-06-07 07:27:07 to 2011-06-08 12:58:23
Back to CruiseResearch ActivitiesStationsMapUnderway DataData graphs

EquipmentUnitsComment
TimeDGPSUTC
LatitudeDGPSDM.mWGS84
LongitudeDGPSDM.mWGS84
HeadingGyrodeg 
SOGDGPSknotsSpeed over ground
COGDGPSdegCourse over ground
DepthEcho soundermeters200 kHz
Missing or incorrect values are displayed as -999
Navigation data collected by the RV Zeeleeuw from 2011-06-07 06:59:36 to 2011-06-08 13:07:11
                                                                                    Next 1000 lines
Time Latitude Longitude Heading SOG COG Depth
2011-06-07 06:59:46 51°13.636 2°56.019 124.9 -999 208 -999
2011-06-07 06:59:51 51°13.636 2°56.019 125.1 -999 143 -999
2011-06-07 06:59:56 51°13.636 2°56.019 124.9 -999 57 -999
2011-06-07 07:00:01 51°13.636 2°56.019 124.6 -999 276 -999
2011-06-07 07:00:06 51°13.636 2°56.019 124.4 -999 198 -999
2011-06-07 07:00:11 51°13.636 2°56.019 124.4 -999 124 -999
2011-06-07 07:00:16 51°13.636 2°56.019 124.4 -999 149 -999
2011-06-07 07:00:21 51°13.636 2°56.019 124.5 -999 199 8.3
2011-06-07 07:00:26 51°13.636 2°56.019 124.6 -999 124 -999
2011-06-07 07:00:31 51°13.636 2°56.019 124.7 -999 332 8.2
2011-06-07 07:00:36 51°13.636 2°56.019 124.8 -999 308 8.3
2011-06-07 07:00:40 51°13.636 2°56.019 124.8 -999 189 8.2
2011-06-07 07:00:45 51°13.636 2°56.019 124.8 -999 161 8.3
2011-06-07 07:00:51 51°13.636 2°56.019 124.8 -999 183 8.2
2011-06-07 07:00:56 51°13.636 2°56.019 124.8 -999 146 8.2
2011-06-07 07:01:01 51°13.636 2°56.019 124.8 -999 309 8.2
2011-06-07 07:01:06 51°13.636 2°56.019 124.8 -999 278 8.3
2011-06-07 07:01:11 51°13.636 2°56.019 124.8 -999 179 8.3
2011-06-07 07:01:16 51°13.636 2°56.019 124.9 -999 305 8.2
2011-06-07 07:01:20 51°13.636 2°56.019 124.9 -999 314 8.2
2011-06-07 07:01:25 51°13.636 2°56.019 124.9 -999 149 8.3
2011-06-07 07:01:30 51°13.636 2°56.019 124.9 -999 225 8.3
2011-06-07 07:01:35 51°13.636 2°56.019 124.9 -999 65 8.3
2011-06-07 07:01:40 51°13.636 2°56.019 124.9 -999 279 8.3
2011-06-07 07:01:44 51°13.636 2°56.019 124.9 -999 204 8.2
2011-06-07 07:01:49 51°13.636 2°56.019 124.9 -999 13 8.3
2011-06-07 07:01:54 51°13.636 2°56.019 124.9 -999 270 8.3
2011-06-07 07:01:59 51°13.636 2°56.019 124.9 -999 156 8.3
2011-06-07 07:02:04 51°13.636 2°56.019 124.9 -999 231 8.2
2011-06-07 07:02:08 51°13.635 2°56.019 124.9 -999 265 8.2
2011-06-07 07:02:13 51°13.635 2°56.019 124.9 -999 113 8.2
2011-06-07 07:02:19 51°13.635 2°56.019 124.9 -999 144 8.2
2011-06-07 07:02:24 51°13.635 2°56.019 124.9 -999 315 8.2
2011-06-07 07:02:28 51°13.635 2°56.019 124.9 -999 298 8.2
2011-06-07 07:02:33 51°13.635 2°56.019 124.9 -999 247 8.2
2011-06-07 07:02:38 51°13.636 2°56.019 124.9 -999 70 8.2
2011-06-07 07:02:43 51°13.636 2°56.019 124.9 -999 305 8.2
2011-06-07 07:02:48 51°13.636 2°56.019 124.9 -999 248 8.2
2011-06-07 07:02:52 51°13.636 2°56.018 124.9 -999 213 6
2011-06-07 07:02:57 51°13.636 2°56.019 124.9 -999 205 8.2
2011-06-07 07:03:02 51°13.635 2°56.019 124.9 -999 317 8.2
2011-06-07 07:03:08 51°13.635 2°56.019 124.9 -999 262 8.2
2011-06-07 07:03:12 51°13.635 2°56.019 124.9 -999 221 8.2
2011-06-07 07:03:17 51°13.635 2°56.019 124.9 -999 195 8.2
2011-06-07 07:03:22 51°13.635 2°56.019 124.9 -999 183 8.2
2011-06-07 07:03:28 51°13.635 2°56.019 124.9 -999 293 6
2011-06-07 07:03:32 51°13.635 2°56.019 124.9 -999 161 8.2
2011-06-07 07:03:37 51°13.635 2°56.019 124.9 -999 299 8.2
2011-06-07 07:03:42 51°13.635 2°56.019 124.9 -999 285 8.2
2011-06-07 07:03:48 51°13.635 2°56.019 124.9 -999 303 8.2
2011-06-07 07:03:52 51°13.635 2°56.019 124.9 -999 243 8.2
2011-06-07 07:03:57 51°13.635 2°56.019 124.9 -999 140 6
2011-06-07 07:04:03 51°13.635 2°56.019 124.9 -999 278 8.2
2011-06-07 07:04:08 51°13.635 2°56.019 124.9 -999 167 8.2
2011-06-07 07:04:12 51°13.636 2°56.018 124.9 -999 161 8.2
2011-06-07 07:04:17 51°13.636 2°56.018 124.9 -999 121 8.2
2011-06-07 07:04:22 51°13.636 2°56.018 124.9 -999 138 8.2
2011-06-07 07:04:28 51°13.636 2°56.018 124.9 -999 163 8.2
2011-06-07 07:04:32 51°13.636 2°56.018 124.9 -999 162 8.2
2011-06-07 07:04:37 51°13.636 2°56.018 124.9 -999 239 8.2
2011-06-07 07:04:42 51°13.636 2°56.018 124.9 -999 185 8.2
2011-06-07 07:04:48 51°13.635 2°56.018 124.9 -999 168 8.2
2011-06-07 07:04:52 51°13.635 2°56.018 124.9 -999 227 8.2
2011-06-07 07:04:57 51°13.635 2°56.018 124.9 -999 285 8.2
2011-06-07 07:05:02 51°13.635 2°56.018 124.9 -999 76 8.2
2011-06-07 07:05:08 51°13.635 2°56.018 124.9 -999 41 8.2
2011-06-07 07:05:12 51°13.635 2°56.018 124.9 -999 305 8.2
2011-06-07 07:05:18 51°13.635 2°56.018 124.9 -999 344 8.2
2011-06-07 07:05:23 51°13.635 2°56.018 124.9 -999 274 8.2
2011-06-07 07:05:28 51°13.635 2°56.018 125 -999 243 8.2
2011-06-07 07:05:32 51°13.636 2°56.018 125 -999 230 8.2
2011-06-07 07:05:37 51°13.636 2°56.017 125 -999 293 8.2
2011-06-07 07:05:42 51°13.636 2°56.017 125 -999 291 8.2
2011-06-07 07:05:47 51°13.636 2°56.017 125 -999 178 8.2
2011-06-07 07:05:52 51°13.636 2°56.017 125 -999 147 8.2
2011-06-07 07:05:57 51°13.636 2°56.017 125 -999 246 8.2
2011-06-07 07:06:03 51°13.636 2°56.017 125 -999 327 8.2
2011-06-07 07:06:07 51°13.636 2°56.017 125 -999 346 8.2
2011-06-07 07:06:13 51°13.636 2°56.017 125 -999 329 8.2
2011-06-07 07:06:17 51°13.636 2°56.017 125 -999 272 8.2
2011-06-07 07:06:22 51°13.636 2°56.017 125 -999 290 8.2
2011-06-07 07:06:27 51°13.636 2°56.017 125 -999 262 8.2
2011-06-07 07:06:32 51°13.636 2°56.017 125 -999 81 8.2
2011-06-07 07:06:37 51°13.636 2°56.017 125 -999 184 8.2
2011-06-07 07:06:42 51°13.636 2°56.017 125 -999 292 8.2
2011-06-07 07:06:47 51°13.636 2°56.017 125 -999 253 8.2
2011-06-07 07:06:53 51°13.636 2°56.017 125 -999 92 8.2
2011-06-07 07:06:57 51°13.636 2°56.017 125 -999 103 8.2
2011-06-07 07:07:02 51°13.636 2°56.017 125 -999 266 8.2
2011-06-07 07:07:07 51°13.636 2°56.017 125 -999 115 8.2
2011-06-07 07:07:12 51°13.636 2°56.017 125 -999 141 8.2
2011-06-07 07:07:17 51°13.636 2°56.017 125 -999 274 8.2
2011-06-07 07:07:22 51°13.636 2°56.016 125 -999 162 8.2
2011-06-07 07:07:27 51°13.636 2°56.016 125 -999 335 8.2
2011-06-07 07:07:32 51°13.636 2°56.017 125 -999 276 8.2
2011-06-07 07:07:37 51°13.636 2°56.017 125 -999 248 8.1
2011-06-07 07:07:42 51°13.635 2°56.017 125 -999 202 8.2
2011-06-07 07:07:48 51°13.635 2°56.016 125 -999 220 8.2
2011-06-07 07:07:52 51°13.635 2°56.016 125 -999 277 8.2
2011-06-07 07:07:57 51°13.635 2°56.016 125 -999 323 8.2
2011-06-07 07:08:02 51°13.635 2°56.016 125 -999 269 8.2
2011-06-07 07:08:07 51°13.635 2°56.017 125 -999 298 8.2
2011-06-07 07:08:12 51°13.635 2°56.017 125 -999 300 8.2
2011-06-07 07:08:17 51°13.635 2°56.017 125 -999 228 8.2
2011-06-07 07:08:22 51°13.635 2°56.017 125 -999 223 8.2
2011-06-07 07:08:28 51°13.635 2°56.017 125 -999 310 8.2
2011-06-07 07:08:33 51°13.635 2°56.017 125 -999 211 6
2011-06-07 07:08:38 51°13.635 2°56.017 125 -999 193 8.2
2011-06-07 07:08:43 51°13.635 2°56.017 125 -999 334 8.2
2011-06-07 07:08:48 51°13.635 2°56.017 125 -999 163 8.2
2011-06-07 07:08:53 51°13.635 2°56.017 125 -999 275 8.2
2011-06-07 07:08:58 51°13.635 2°56.017 125 -999 237 8.2
2011-06-07 07:09:03 51°13.635 2°56.016 125 -999 155 6
2011-06-07 07:09:08 51°13.635 2°56.016 125.1 -999 163 8.2
2011-06-07 07:09:13 51°13.636 2°56.016 125.1 -999 94 8.2
2011-06-07 07:09:17 51°13.636 2°56.016 125.1 -999 98 8.1
2011-06-07 07:09:23 51°13.636 2°56.016 125.1 -999 285 8.1
2011-06-07 07:09:28 51°13.636 2°56.016 125.1 -999 300 8.1
2011-06-07 07:09:33 51°13.636 2°56.016 125.1 -999 281 8.1
2011-06-07 07:09:37 51°13.636 2°56.016 125.1 -999 139 8.1
2011-06-07 07:09:43 51°13.636 2°56.016 125.1 -999 172 8.1
2011-06-07 07:09:48 51°13.636 2°56.016 125.1 -999 112 8.1
2011-06-07 07:09:53 51°13.636 2°56.016 125.1 -999 171 8.1
2011-06-07 07:09:57 51°13.635 2°56.017 125.1 -999 153 8.1
2011-06-07 07:10:03 51°13.635 2°56.017 125.1 -999 108 8.1
2011-06-07 07:10:08 51°13.635 2°56.017 125.1 -999 278 6
2011-06-07 07:10:13 51°13.635 2°56.017 125.1 -999 288 8.1
2011-06-07 07:10:17 51°13.635 2°56.017 125.1 -999 248 8.1
2011-06-07 07:10:23 51°13.636 2°56.017 125.1 -999 198 8.1
2011-06-07 07:10:28 51°13.636 2°56.016 125.1 -999 264 6
2011-06-07 07:10:33 51°13.636 2°56.016 125.1 -999 214 8.1
2011-06-07 07:10:38 51°13.636 2°56.016 125.1 -999 221 8.1
2011-06-07 07:10:42 51°13.636 2°56.016 125.1 -999 158 8.1
2011-06-07 07:10:47 51°13.636 2°56.016 125.1 -999 305 8.1
2011-06-07 07:10:53 51°13.636 2°56.016 125.1 -999 231 8.1
2011-06-07 07:10:57 51°13.636 2°56.016 125.1 -999 248 8.1
2011-06-07 07:11:03 51°13.636 2°56.016 125.2 -999 309 8.1
2011-06-07 07:11:07 51°13.636 2°56.016 125.2 0.1 299 8.1
2011-06-07 07:11:12 51°13.636 2°56.016 125.2 0.1 308 8.1
2011-06-07 07:11:17 51°13.636 2°56.016 125.2 -999 248 8.1
2011-06-07 07:11:22 51°13.636 2°56.016 125.2 -999 219 8.1
2011-06-07 07:11:27 51°13.636 2°56.016 125.2 -999 170 8.1
2011-06-07 07:11:32 51°13.636 2°56.016 125.2 -999 261 8.1
2011-06-07 07:11:37 51°13.636 2°56.016 125.2 -999 270 8.1
2011-06-07 07:11:43 51°13.636 2°56.017 125.2 -999 134 8.1
2011-06-07 07:11:49 51°13.636 2°56.017 125.2 -999 107 8.1
2011-06-07 07:11:52 51°13.636 2°56.017 125.2 -999 239 8.1
2011-06-07 07:11:57 51°13.636 2°56.016 125.2 -999 290 8.1
2011-06-07 07:12:02 51°13.636 2°56.016 125.2 -999 187 8.1
2011-06-07 07:12:07 51°13.636 2°56.016 125.2 -999 50 8
2011-06-07 07:12:13 51°13.636 2°56.016 125.2 -999 142 8.1
2011-06-07 07:12:17 51°13.636 2°56.016 125.2 -999 297 8.1
2011-06-07 07:12:22 51°13.636 2°56.017 125.2 -999 331 8.1
2011-06-07 07:12:27 51°13.636 2°56.017 125.2 -999 264 8.1
2011-06-07 07:12:32 51°13.636 2°56.017 125.2 -999 227 8.1
2011-06-07 07:12:37 51°13.636 2°56.017 125.2 -999 213 8.1
2011-06-07 07:12:43 51°13.636 2°56.017 125.2 -999 188 8
2011-06-07 07:12:47 51°13.636 2°56.017 125.2 -999 240 8.1
2011-06-07 07:12:53 51°13.636 2°56.017 125.2 -999 240 8.1
2011-06-07 07:12:57 51°13.636 2°56.017 125.2 -999 154 8.1
2011-06-07 07:13:02 51°13.636 2°56.017 125.2 -999 160 8.1
2011-06-07 07:13:07 51°13.636 2°56.017 125.2 -999 173 6
2011-06-07 07:13:13 51°13.636 2°56.017 125.2 -999 245 8.1
2011-06-07 07:13:17 51°13.636 2°56.017 125.2 -999 260 8
2011-06-07 07:13:22 51°13.636 2°56.017 125.2 -999 168 8
2011-06-07 07:13:27 51°13.636 2°56.017 125.2 -999 238 8
2011-06-07 07:13:32 51°13.636 2°56.017 125.2 -999 302 8.1
2011-06-07 07:13:37 51°13.636 2°56.017 125.2 -999 179 8
2011-06-07 07:13:41 51°13.636 2°56.017 125.2 -999 168 6
2011-06-07 07:13:47 51°13.636 2°56.017 125.2 -999 222 8
2011-06-07 07:13:53 51°13.636 2°56.017 125.2 -999 130 8.1
2011-06-07 07:13:57 51°13.636 2°56.017 125.2 0.1 342 8
2011-06-07 07:14:03 51°13.636 2°56.017 124.9 -999 51 8
2011-06-07 07:14:08 51°13.636 2°56.017 124.4 0.1 134 -999
2011-06-07 07:14:13 51°13.636 2°56.017 123.1 -999 197 8
2011-06-07 07:14:17 51°13.636 2°56.017 122.4 -999 186 8
2011-06-07 07:14:22 51°13.636 2°56.017 121.8 0.1 186 8
2011-06-07 07:14:28 51°13.636 2°56.017 120.9 0.1 192 8
2011-06-07 07:14:33 51°13.636 2°56.017 120 0.1 199 8.1
2011-06-07 07:14:37 51°13.635 2°56.017 118.9 0.1 195 8
2011-06-07 07:14:42 51°13.635 2°56.017 117.7 0.1 187 8
2011-06-07 07:14:47 51°13.635 2°56.017 116.3 0.1 186 8.1
2011-06-07 07:14:52 51°13.635 2°56.017 115 0.1 196 8
2011-06-07 07:14:57 51°13.635 2°56.017 113.7 0.1 190 -999
2011-06-07 07:15:04 51°13.635 2°56.017 112.3 0.1 230 -999
2011-06-07 07:15:09 51°13.635 2°56.016 111.2 0.4 284 -999
2011-06-07 07:15:14 51°13.635 2°56.015 110.8 0.9 292 8.3
2011-06-07 07:15:20 51°13.636 2°56.012 110.4 1.4 288 8.2
2011-06-07 07:15:25 51°13.637 2°56.008 110 1.9 294 8.2
2011-06-07 07:15:29 51°13.638 2°56.004 110 2.3 292 8.4
2011-06-07 07:15:34 51°13.639 2°55.999 110.4 2.6 294 -999
2011-06-07 07:15:40 51°13.641 2°55.992 110.6 2.9 293 -999
2011-06-07 07:15:45 51°13.643 2°55.986 110.7 3.1 295 -999
2011-06-07 07:15:51 51°13.645 2°55.978 110.5 3.3 293 -999
2011-06-07 07:15:56 51°13.647 2°55.971 110.2 3.6 294 -999
2011-06-07 07:16:01 51°13.649 2°55.963 110 3.7 293 -999
2011-06-07 07:16:07 51°13.652 2°55.954 109.6 3.9 292 -999
2011-06-07 07:16:11 51°13.653 2°55.947 109 4 292 -999
2011-06-07 07:16:16 51°13.656 2°55.939 108.3 4.1 291 -999
2011-06-07 07:16:21 51°13.658 2°55.929 107.7 4.3 290 -999
2011-06-07 07:16:26 51°13.66 2°55.92 107.3 4.4 289 -999
2011-06-07 07:16:32 51°13.662 2°55.909 106.8 4.5 288 -999
2011-06-07 07:16:36 51°13.664 2°55.901 106.4 4.6 287 -999
2011-06-07 07:16:41 51°13.666 2°55.892 106.3 4.5 288 -999
2011-06-07 07:16:46 51°13.668 2°55.882 106.4 4.6 288 -999
2011-06-07 07:16:52 51°13.671 2°55.87 106.9 4.7 288 -999
2011-06-07 07:16:56 51°13.672 2°55.862 107.4 4.6 289 -999
2011-06-07 07:17:01 51°13.674 2°55.853 108.1 4.6 290 -999
2011-06-07 07:17:06 51°13.676 2°55.843 109 4.5 290 -999
2011-06-07 07:17:11 51°13.678 2°55.834 110.3 4.4 292 -999
2011-06-07 07:17:16 51°13.68 2°55.825 111.6 4.4 292 -999
2011-06-07 07:17:21 51°13.683 2°55.816 113 4.4 294 -999
2011-06-07 07:17:27 51°13.686 2°55.805 114.4 4.4 295 -999
2011-06-07 07:17:31 51°13.688 2°55.798 116.1 4.4 297 -999
2011-06-07 07:17:36 51°13.691 2°55.79 117.8 4.4 298 -999
2011-06-07 07:17:41 51°13.695 2°55.782 119.7 4.4 300 -999
2011-06-07 07:17:46 51°13.698 2°55.774 121.6 4.4 301 -999
2011-06-07 07:17:51 51°13.702 2°55.766 123.7 4.3 303 -999
2011-06-07 07:17:56 51°13.705 2°55.758 125.7 4.3 305 -999
2011-06-07 07:18:01 51°13.709 2°55.75 127.8 4.3 307 -999
2011-06-07 07:18:06 51°13.713 2°55.743 130.2 4.4 309 -999
2011-06-07 07:18:12 51°13.717 2°55.734 132.5 4.4 312 -999
2011-06-07 07:18:17 51°13.722 2°55.727 134.9 4.5 314 -999
2011-06-07 07:18:21 51°13.725 2°55.721 137.4 4.6 317 -999
2011-06-07 07:18:26 51°13.731 2°55.714 139.8 4.9 320 -999
2011-06-07 07:18:31 51°13.736 2°55.707 142 5 321 -999
2011-06-07 07:18:36 51°13.742 2°55.7 143.9 5.1 323 -999
2011-06-07 07:18:41 51°13.748 2°55.694 145.7 5.2 325 -999
2011-06-07 07:18:45 51°13.753 2°55.688 147.3 5.3 327 -999
2011-06-07 07:18:52 51°13.761 2°55.679 148.6 4.5 328 -999
2011-06-07 07:18:55 51°13.766 2°55.675 149.7 3.2 329 -999
2011-06-07 07:19:02 51°13.776 2°55.669 150.8 3.6 330 -999
2011-06-07 07:19:06 51°13.782 2°55.664 152.2 4.5 331 -999
2011-06-07 07:19:12 51°13.787 2°55.655 153.4 5.6 333 -999
2011-06-07 07:19:17 51°13.794 2°55.649 154.3 5.6 333 -999
2011-06-07 07:19:22 51°13.8 2°55.644 155.4 5.6 334 -999
2011-06-07 07:19:26 51°13.806 2°55.639 156.5 5.5 335 -999
2011-06-07 07:19:31 51°13.813 2°55.635 157.6 5.5 337 -999
2011-06-07 07:19:37 51°13.821 2°55.629 159.6 5.5 338 -999
2011-06-07 07:19:42 51°13.829 2°55.626 161.5 5.4 340 -999
2011-06-07 07:19:46 51°13.835 2°55.623 163.6 5.4 342 -999
2011-06-07 07:19:51 51°13.842 2°55.62 166 5.4 344 -999
2011-06-07 07:19:56 51°13.85 2°55.617 168.4 5.4 346 -999
2011-06-07 07:20:02 51°13.858 2°55.614 170.7 5.4 349 -999
2011-06-07 07:20:06 51°13.864 2°55.613 173.3 5.4 351 -999
2011-06-07 07:20:12 51°13.873 2°55.612 175.9 5.3 354 -999
2011-06-07 07:20:16 51°13.879 2°55.611 178.6 5.3 357 -999
2011-06-07 07:20:22 51°13.888 2°55.611 181.5 5.3 358 -999
2011-06-07 07:20:26 51°13.894 2°55.611 184 5.2 1 -999
2011-06-07 07:20:31 51°13.901 2°55.612 186.6 4.9 4 -999
2011-06-07 07:20:36 51°13.908 2°55.613 188.9 4.8 5 -999
2011-06-07 07:20:41 51°13.914 2°55.614 191.2 4.6 7 -999
2011-06-07 07:20:46 51°13.92 2°55.616 193.3 4.5 9 11.4
2011-06-07 07:20:50 51°13.925 2°55.617 195.2 4.3 11 11.1
2011-06-07 07:20:55 51°13.931 2°55.619 196.6 4.2 13 11.2
2011-06-07 07:21:00 51°13.936 2°55.622 199.1 4 15 11.1
2011-06-07 07:21:05 51°13.941 2°55.624 201.2 3.8 18 11
2011-06-07 07:21:10 51°13.946 2°55.627 203.9 3.6 20 10.9
2011-06-07 07:21:15 51°13.95 2°55.63 206.5 3.2 22 10.9
2011-06-07 07:21:20 51°13.953 2°55.633 208.9 2.6 23 10.8
2011-06-07 07:21:25 51°13.956 2°55.635 212 1.9 24 10.8
2011-06-07 07:21:29 51°13.957 2°55.636 215.6 1.4 23 10.8
2011-06-07 07:21:34 51°13.959 2°55.636 220.4 0.8 17 10.8
2011-06-07 07:21:39 51°13.959 2°55.637 224 0.5 10 10.7
2011-06-07 07:21:45 51°13.96 2°55.636 229.2 0.5 342 10.8
2011-06-07 07:21:50 51°13.96 2°55.635 234.3 0.6 292 10.8
2011-06-07 07:21:55 51°13.96 2°55.631 240.3 1.3 263 10.8
2011-06-07 07:21:59 51°13.96 2°55.627 245.5 2.1 268 10.8
2011-06-07 07:22:04 51°13.96 2°55.621 254.1 2.9 271 10.8
2011-06-07 07:22:09 51°13.961 2°55.613 263.5 3.4 280 10.8
2011-06-07 07:22:14 51°13.962 2°55.605 273 3.9 289 10.8
2011-06-07 07:22:19 51°13.965 2°55.597 282.1 4.2 296 10.7
2011-06-07 07:22:23 51°13.968 2°55.59 292.7 4.5 302 10.9
2011-06-07 07:22:28 51°13.972 2°55.581 298.8 4.9 307 11.1
2011-06-07 07:22:33 51°13.977 2°55.573 305.6 5.2 312 10.9
2011-06-07 07:22:38 51°13.983 2°55.565 311.7 5.6 317 10.9
2011-06-07 07:22:43 51°13.989 2°55.556 316.4 5.9 319 11
2011-06-07 07:22:48 51°13.996 2°55.548 320.1 6.1 323 11.3
2011-06-07 07:22:53 51°14.003 2°55.539 323.1 6.5 325 11.1
2011-06-07 07:22:58 51°14.011 2°55.531 325.2 6.9 326 11
2011-06-07 07:23:03 51°14.02 2°55.522 326.5 7.2 327 11
2011-06-07 07:23:07 51°14.027 2°55.514 326.7 7.6 327 11
2011-06-07 07:23:13 51°14.038 2°55.503 327.2 7.9 328 11
2011-06-07 07:23:18 51°14.048 2°55.494 327.8 8.1 328 11.1
2011-06-07 07:23:22 51°14.056 2°55.487 328.5 8.3 329 11
2011-06-07 07:23:27 51°14.066 2°55.478 329.4 8.5 330 11
2011-06-07 07:23:33 51°14.079 2°55.466 329.7 8.6 330 10.9
2011-06-07 07:23:37 51°14.087 2°55.458 329.6 8.8 330 10.9
2011-06-07 07:23:43 51°14.1 2°55.447 329.6 8.9 330 10.9
2011-06-07 07:23:47 51°14.109 2°55.439 329.6 9.1 330 10.9
2011-06-07 07:23:53 51°14.122 2°55.426 329.3 9.2 329 10.9
2011-06-07 07:23:58 51°14.133 2°55.416 329.2 9.4 330 10.8
2011-06-07 07:24:03 51°14.144 2°55.404 329.5 9.6 329 10.8
2011-06-07 07:24:07 51°14.154 2°55.396 329.1 9.7 329 10.8
2011-06-07 07:24:13 51°14.168 2°55.382 328.7 9.8 328 10.8
2011-06-07 07:24:18 51°14.179 2°55.37 328.1 10 328 10.8
2011-06-07 07:24:23 51°14.191 2°55.359 327.9 10 328 -999
2011-06-07 07:24:28 51°14.203 2°55.347 328.5 10.1 329 10.8
2011-06-07 07:24:33 51°14.215 2°55.335 328.6 10.2 328 10.9
2011-06-07 07:24:38 51°14.227 2°55.323 328.2 10.3 327 10.9
2011-06-07 07:24:43 51°14.239 2°55.31 327.2 10.4 326 10.9
2011-06-07 07:24:47 51°14.249 2°55.299 325.8 10.6 325 10.9
2011-06-07 07:24:52 51°14.26 2°55.285 324.5 10.6 324 10.9
2011-06-07 07:24:58 51°14.275 2°55.268 323.8 10.7 324 10.8
2011-06-07 07:25:03 51°14.287 2°55.254 323.9 10.8 324 10.7
2011-06-07 07:25:07 51°14.297 2°55.243 324.9 10.8 325 10.8
2011-06-07 07:25:12 51°14.309 2°55.229 325.2 10.9 324 10.5
2011-06-07 07:25:17 51°14.322 2°55.215 325.2 11 325 10.7
2011-06-07 07:25:23 51°14.337 2°55.199 324.7 11 325 10.9
2011-06-07 07:25:28 51°14.349 2°55.185 325.2 11 326 -999
2011-06-07 07:25:33 51°14.362 2°55.171 325.5 11.1 325 11
2011-06-07 07:25:38 51°14.375 2°55.157 325.5 11.1 326 10.8
2011-06-07 07:25:43 51°14.388 2°55.144 326.5 11.2 327 10.8
2011-06-07 07:25:48 51°14.401 2°55.13 327 11.3 327 10.7
2011-06-07 07:25:53 51°14.414 2°55.117 327 11.3 327 11
2011-06-07 07:25:57 51°14.425 2°55.106 327.4 11.3 328 10.8
2011-06-07 07:26:03 51°14.441 2°55.091 328.9 11.3 329 10.6
2011-06-07 07:26:08 51°14.454 2°55.078 329.6 11.4 329 11
2011-06-07 07:26:13 51°14.468 2°55.065 329.3 11.4 328 11.2
2011-06-07 07:26:18 51°14.481 2°55.051 329.2 11.4 328 11.5
2011-06-07 07:26:23 51°14.494 2°55.037 328.6 11.5 326 11.1
2011-06-07 07:26:28 51°14.508 2°55.023 326.6 11.4 325 11.3
2011-06-07 07:26:32 51°14.518 2°55.011 325.8 11.5 325 11.7
2011-06-07 07:26:38 51°14.534 2°54.993 325.8 11.5 325 12.5
2011-06-07 07:26:43 51°14.547 2°54.979 326 11.5 325 12
2011-06-07 07:26:48 51°14.56 2°54.963 324.9 11.6 323 12.5
2011-06-07 07:26:52 51°14.57 2°54.951 324.4 11.6 323 12.8
2011-06-07 07:26:58 51°14.586 2°54.932 324.7 11.7 323 12.6
2011-06-07 07:27:03 51°14.598 2°54.916 323.8 11.7 321 12.6
2011-06-07 07:27:08 51°14.611 2°54.899 323 11.8 321 12.5
2011-06-07 07:27:12 51°14.621 2°54.886 322.7 11.8 320 12.3
2011-06-07 07:27:17 51°14.633 2°54.869 322.5 11.8 320 12
2011-06-07 07:27:23 51°14.649 2°54.849 322.6 11.9 320 11.8
2011-06-07 07:27:28 51°14.661 2°54.832 323.2 11.9 321 12.4
2011-06-07 07:27:32 51°14.672 2°54.819 324 12 321 12.4
2011-06-07 07:27:37 51°14.685 2°54.803 324.9 12 323 12.4
2011-06-07 07:27:42 51°14.698 2°54.787 325.7 12.1 323 12
2011-06-07 07:27:48 51°14.715 2°54.768 326.4 12.1 323 12.2
2011-06-07 07:27:52 51°14.725 2°54.755 327 12.1 324 11.9
2011-06-07 07:27:57 51°14.739 2°54.74 327.7 12 325 11.8
2011-06-07 07:28:03 51°14.756 2°54.722 328.6 12 326 12.3
2011-06-07 07:28:08 51°14.77 2°54.708 329.3 12.1 327 11.8
2011-06-07 07:28:13 51°14.784 2°54.693 329.5 12.1 327 12.2
2011-06-07 07:28:18 51°14.798 2°54.679 329.6 12.1 327 11.8
2011-06-07 07:28:23 51°14.812 2°54.664 329.8 12.2 328 12.6
2011-06-07 07:28:28 51°14.826 2°54.65 329.9 12.2 328 11.8
2011-06-07 07:28:33 51°14.841 2°54.636 330 12.1 328 11.6
2011-06-07 07:28:37 51°14.852 2°54.624 330 12.1 328 11.8
2011-06-07 07:28:43 51°14.869 2°54.607 329.6 12.3 327 11.7
2011-06-07 07:28:48 51°14.884 2°54.591 328.9 12.5 327 11.9
2011-06-07 07:28:53 51°14.898 2°54.576 328.3 12.7 326 -999
2011-06-07 07:28:58 51°14.913 2°54.56 327 12.8 325 12.4
2011-06-07 07:29:03 51°14.927 2°54.543 325.8 12.9 324 11.7
2011-06-07 07:29:08 51°14.942 2°54.526 325.2 13 323 11.8
2011-06-07 07:29:13 51°14.956 2°54.508 324.5 13 323 11.6
2011-06-07 07:29:18 51°14.971 2°54.491 324 13.1 323 11.8
2011-06-07 07:29:22 51°14.983 2°54.477 323.7 13.2 323 11.9
2011-06-07 07:29:28 51°15 2°54.456 323.6 13.2 323 11.8
2011-06-07 07:29:33 51°15.015 2°54.438 323.5 13.3 323 11.6
2011-06-07 07:29:37 51°15.027 2°54.424 323.5 13.3 323 11.7
2011-06-07 07:29:43 51°15.045 2°54.404 323.9 13.3 323 11.8
2011-06-07 07:29:48 51°15.06 2°54.387 324.3 13.3 324 11.7
2011-06-07 07:29:53 51°15.075 2°54.369 325 13.3 325 11.6
2011-06-07 07:29:57 51°15.087 2°54.356 325.5 13.3 325 12
2011-06-07 07:30:01 51°15.099 2°54.343 326.4 13.3 326 12
2011-06-07 07:30:08 51°15.121 2°54.32 326.8 13.3 327 12
2011-06-07 07:30:13 51°15.136 2°54.305 327.4 13.3 327 12
2011-06-07 07:30:17 51°15.149 2°54.292 327.5 13.3 327 12
2011-06-07 07:30:23 51°15.167 2°54.273 327.6 13.3 327 12.2
2011-06-07 07:30:28 51°15.183 2°54.257 327.7 13.3 327 12.2
2011-06-07 07:30:33 51°15.198 2°54.241 327.7 13.3 327 12
2011-06-07 07:30:37 51°15.21 2°54.228 327.2 13.2 326 12
2011-06-07 07:30:43 51°15.228 2°54.207 326.1 13.2 324 11.9
2011-06-07 07:30:48 51°15.243 2°54.189 324.1 13.2 323 12
2011-06-07 07:30:53 51°15.257 2°54.171 322.5 13.2 321 12.2
2011-06-07 07:30:57 51°15.268 2°54.156 320.7 13.2 319 11.9
2011-06-07 07:31:02 51°15.282 2°54.136 318.8 13.2 318 11.9
2011-06-07 07:31:08 51°15.298 2°54.113 317.6 13.2 318 11.9
2011-06-07 07:31:12 51°15.308 2°54.096 317.1 13.2 316 12.1
2011-06-07 07:31:17 51°15.322 2°54.076 316.5 13.2 317 11.9
2011-06-07 07:31:23 51°15.338 2°54.052 316.2 13.2 316 12.2
2011-06-07 07:31:28 51°15.351 2°54.031 315.9 13.2 315 12
2011-06-07 07:31:33 51°15.363 2°54.01 315.5 13.2 313 12.1
2011-06-07 07:31:38 51°15.376 2°53.989 314.9 13.1 313 12.1
2011-06-07 07:31:42 51°15.386 2°53.972 314.4 13.2 314 12
2011-06-07 07:31:47 51°15.398 2°53.952 315.3 13.1 315 11.9
2011-06-07 07:31:52 51°15.411 2°53.932 316.8 13.1 317 12.1
2011-06-07 07:31:58 51°15.428 2°53.908 318 13 318 11.9
2011-06-07 07:32:02 51°15.438 2°53.893 319.6 13 319 12
2011-06-07 07:32:07 51°15.452 2°53.875 320.8 13 320 12.1
2011-06-07 07:32:13 51°15.469 2°53.853 321.9 13 321 12.2
2011-06-07 07:32:18 51°15.483 2°53.835 323.2 13 322 12.1
2011-06-07 07:32:22 51°15.494 2°53.821 324.2 13 322 12
2011-06-07 07:32:27 51°15.509 2°53.804 324.7 12.9 323 12.1
2011-06-07 07:32:33 51°15.526 2°53.783 325.2 12.9 323 12.1
2011-06-07 07:32:38 51°15.54 2°53.766 325.8 13 323 12.4
2011-06-07 07:32:42 51°15.552 2°53.752 326 13 324 12
2011-06-07 07:32:47 51°15.566 2°53.736 326 12.9 323 12
2011-06-07 07:32:52 51°15.58 2°53.718 325.5 12.9 322 12.2
2011-06-07 07:32:58 51°15.597 2°53.697 324.8 13 322 12.1
2011-06-07 07:33:02 51°15.609 2°53.683 324.5 13 322 12.2
2011-06-07 07:33:07 51°15.623 2°53.666 324.5 13 322 12.2
2011-06-07 07:33:12 51°15.637 2°53.648 324.1 12.9 322 11.9
2011-06-07 07:33:18 51°15.654 2°53.626 323.5 13 321 12.1
2011-06-07 07:33:22 51°15.665 2°53.612 322.6 13 320 12.3
2011-06-07 07:33:26 51°15.676 2°53.597 321.6 13 319 12.3
2011-06-07 07:33:32 51°15.692 2°53.574 320.9 13 318 12.2
2011-06-07 07:33:37 51°15.706 2°53.555 320 13 318 12.1
2011-06-07 07:33:43 51°15.722 2°53.531 319.5 13 317 12.1
2011-06-07 07:33:48 51°15.735 2°53.512 319.1 13 318 12.2
2011-06-07 07:33:53 51°15.748 2°53.493 319.1 13 318 12.1
2011-06-07 07:33:58 51°15.762 2°53.475 321.2 13 321 12.2
2011-06-07 07:34:03 51°15.777 2°53.457 322.6 13 321 12.2
2011-06-07 07:34:08 51°15.791 2°53.44 324.3 12.9 324 12
2011-06-07 07:34:13 51°15.806 2°53.424 326 12.9 325 12.1
2011-06-07 07:34:18 51°15.821 2°53.409 327.4 13 327 12.1
2011-06-07 07:34:23 51°15.836 2°53.394 329 13 328 12
2011-06-07 07:34:28 51°15.852 2°53.38 330.6 12.9 330 11.9
2011-06-07 07:34:33 51°15.868 2°53.366 332 13 331 12
2011-06-07 07:34:38 51°15.884 2°53.352 333.5 13 332 12
2011-06-07 07:34:43 51°15.9 2°53.34 334.7 13 333 12.1
2011-06-07 07:34:47 51°15.913 2°53.329 335.6 13 334 12
2011-06-07 07:34:52 51°15.929 2°53.317 336.5 13 335 12.2
2011-06-07 07:34:58 51°15.949 2°53.303 336.9 13.1 335 12.3
2011-06-07 07:35:03 51°15.965 2°53.291 337.2 13 335 11.9
2011-06-07 07:35:07 51°15.979 2°53.281 337.5 13 335 12
2011-06-07 07:35:12 51°15.995 2°53.268 337.2 13 335 12
2011-06-07 07:35:18 51°16.015 2°53.254 337.1 13.1 334 12.3
2011-06-07 07:35:23 51°16.031 2°53.241 336.5 13.1 333 12.2
2011-06-07 07:35:27 51°16.044 2°53.23 335.6 13.1 333 12
2011-06-07 07:35:32 51°16.06 2°53.216 334.7 13.1 332 12
2011-06-07 07:35:37 51°16.076 2°53.202 333.8 13.1 331 12.1
2011-06-07 07:35:43 51°16.095 2°53.185 333 13.1 330 12.1
2011-06-07 07:35:48 51°16.111 2°53.17 332.1 13.2 330 12.5
2011-06-07 07:35:52 51°16.123 2°53.159 331.6 13.2 330 12.3
2011-06-07 07:35:58 51°16.142 2°53.141 330.7 13.1 329 12.1
2011-06-07 07:36:03 51°16.158 2°53.126 330.4 13.1 330 12.3
2011-06-07 07:36:08 51°16.174 2°53.112 330.9 13.1 330 12.3
2011-06-07 07:36:12 51°16.186 2°53.1 331.2 13.1 331 12.1
2011-06-07 07:36:17 51°16.202 2°53.087 332.2 13.2 332 12.4
2011-06-07 07:36:22 51°16.219 2°53.073 333.8 13.2 334 12.4
2011-06-07 07:36:28 51°16.239 2°53.058 335 13.1 334 12.2
2011-06-07 07:36:33 51°16.255 2°53.046 335.7 13.1 335 12.5
2011-06-07 07:36:38 51°16.272 2°53.034 336.2 13.1 335 12.3
2011-06-07 07:36:43 51°16.288 2°53.022 336.6 13.2 335 12.5
2011-06-07 07:36:48 51°16.305 2°53.01 336.8 13.2 335 12.4
2011-06-07 07:36:53 51°16.321 2°52.997 336.8 13.1 335 12.3
2011-06-07 07:36:57 51°16.335 2°52.988 336.7 13.2 335 12.7
2011-06-07 07:37:01 51°16.348 2°52.977 336.5 13.2 335 12.6
2011-06-07 07:37:08 51°16.371 2°52.959 335.9 13.1 333 12.3
2011-06-07 07:37:13 51°16.387 2°52.946 334.4 13.1 332 12.3
2011-06-07 07:37:17 51°16.4 2°52.935 333.4 13.2 332 12.6
2011-06-07 07:37:21 51°16.413 2°52.924 332.6 13.1 331 12.1
2011-06-07 07:37:27 51°16.432 2°52.907 331.8 13.1 331 12.3
2011-06-07 07:37:33 51°16.451 2°52.891 332.2 13.1 333 12.2
2011-06-07 07:37:37 51°16.464 2°52.88 333.3 13.1 333 12.2
2011-06-07 07:37:42 51°16.481 2°52.868 334.1 13.1 334 12.4
2011-06-07 07:37:48 51°16.5 2°52.853 335.2 13.2 335 12.1
2011-06-07 07:37:52 51°16.514 2°52.844 336.1 13.2 336 12.1
2011-06-07 07:37:58 51°16.534 2°52.83 337.3 13.2 337 12.2
2011-06-07 07:38:02 51°16.548 2°52.821 338.3 13.2 338 11.9
2011-06-07 07:38:07 51°16.565 2°52.81 338.9 13.2 338 12
2011-06-07 07:38:12 51°16.582 2°52.8 339.7 13.2 339 12.1
2011-06-07 07:38:18 51°16.602 2°52.787 340.3 13.2 339 12.1
2011-06-07 07:38:22 51°16.616 2°52.779 340.7 13.1 339 11.8
2011-06-07 07:38:27 51°16.633 2°52.769 341.1 13.2 340 11.6
2011-06-07 07:38:32 51°16.65 2°52.76 341.6 13.1 340 11.4
2011-06-07 07:38:38 51°16.671 2°52.748 341.9 13.2 340 11.5
2011-06-07 07:38:42 51°16.684 2°52.74 341.8 13.1 340 11.2
2011-06-07 07:38:47 51°16.701 2°52.73 341.2 13.1 338 11.2
2011-06-07 07:38:53 51°16.721 2°52.717 340.4 13.1 338 10.9
2011-06-07 07:38:58 51°16.738 2°52.705 339.5 13.1 337 10.6
2011-06-07 07:39:02 51°16.751 2°52.696 338.7 13.1 337 10.4
2011-06-07 07:39:07 51°16.768 2°52.684 337.7 13 335 10.2
2011-06-07 07:39:12 51°16.784 2°52.671 336.5 13 334 10.3
2011-06-07 07:39:18 51°16.803 2°52.657 335.9 13 334 10.2
2011-06-07 07:39:22 51°16.816 2°52.646 335.4 13 334 10.3
2011-06-07 07:39:27 51°16.833 2°52.634 335 13.1 334 10.2
2011-06-07 07:39:33 51°16.852 2°52.618 334.8 13.1 334 10
2011-06-07 07:39:38 51°16.868 2°52.606 334.8 13 334 9.9
2011-06-07 07:39:42 51°16.882 2°52.596 335.4 13.1 335 10.3
2011-06-07 07:39:47 51°16.898 2°52.584 335.7 13.1 335 10.4
2011-06-07 07:39:53 51°16.918 2°52.57 336.5 13.1 337 10.4
2011-06-07 07:39:58 51°16.935 2°52.558 337.5 13.1 337 10.2
2011-06-07 07:40:02 51°16.948 2°52.55 337.8 13.1 338 10.2
2011-06-07 07:40:07 51°16.965 2°52.539 338.6 13.1 339 10.3
2011-06-07 07:40:12 51°16.983 2°52.53 340.9 13 343 10
2011-06-07 07:40:18 51°17.004 2°52.521 343.5 13 344 10.1
2011-06-07 07:40:22 51°17.018 2°52.516 345.7 13.1 347 10.2
2011-06-07 07:40:27 51°17.035 2°52.51 347.7 13.1 348 10.1
2011-06-07 07:40:32 51°17.053 2°52.504 349.7 13 350 10.1
2011-06-07 07:40:38 51°17.075 2°52.499 351.3 13.1 351 10.3
2011-06-07 07:40:42 51°17.089 2°52.496 352.3 13.2 352 10.1
2011-06-07 07:40:47 51°17.107 2°52.492 353.2 13.1 353 10.3
2011-06-07 07:40:52 51°17.125 2°52.489 353.9 13.1 353 10.3
2011-06-07 07:40:58 51°17.147 2°52.485 354.5 13.2 354 10.6
2011-06-07 07:41:03 51°17.165 2°52.482 355 13.2 354 10.2
2011-06-07 07:41:08 51°17.183 2°52.479 355.1 13.1 354 10.4
2011-06-07 07:41:13 51°17.201 2°52.476 355.1 13.1 354 10.3
2011-06-07 07:41:18 51°17.219 2°52.472 354.4 13.1 352 10.3
2011-06-07 07:41:23 51°17.237 2°52.467 353.6 13.1 351 10.6
2011-06-07 07:41:28 51°17.255 2°52.463 352.6 13.1 350 10.5
2011-06-07 07:41:33 51°17.273 2°52.457 351.5 13.1 350 10.6
2011-06-07 07:41:38 51°17.291 2°52.452 350.8 13.1 349 10.7
2011-06-07 07:41:43 51°17.308 2°52.446 350.2 13.1 348 10.7
2011-06-07 07:41:47 51°17.323 2°52.441 349.3 13.1 348 10.8
2011-06-07 07:41:53 51°17.344 2°52.433 348.7 13.2 347 10.6
2011-06-07 07:41:58 51°17.362 2°52.426 348.1 13.1 347 10.8
2011-06-07 07:42:03 51°17.379 2°52.419 347.6 13.1 347 11
2011-06-07 07:42:07 51°17.394 2°52.415 348.3 13 348 10.8
2011-06-07 07:42:12 51°17.411 2°52.409 349.1 13.1 348 10.9
2011-06-07 07:42:17 51°17.429 2°52.403 350 13 349 10.8
2011-06-07 07:42:23 51°17.45 2°52.397 350.8 12.9 350 10.9
2011-06-07 07:42:28 51°17.468 2°52.393 352.1 12.9 352 11.1
2011-06-07 07:42:32 51°17.482 2°52.391 354.6 12.9 355 11
2011-06-07 07:42:38 51°17.503 2°52.388 356.6 12.8 356 10.6
2011-06-07 07:42:43 51°17.521 2°52.388 358.6 12.6 358 10.4
2011-06-07 07:42:48 51°17.538 2°52.387 0.1 12.7 358 10.7
2011-06-07 07:42:52 51°17.553 2°52.387 1.4 12.7 -999 10.7
2011-06-07 07:42:57 51°17.57 2°52.388 3.4 12.6 3 10.9
2011-06-07 07:43:02 51°17.588 2°52.39 5.2 12.6 3 10.9
2011-06-07 07:43:08 51°17.608 2°52.392 6.7 12.6 5 10.8
2011-06-07 07:43:12 51°17.622 2°52.395 7.7 12.6 5 10.8
2011-06-07 07:43:17 51°17.64 2°52.398 8.3 12.6 7 10.6
2011-06-07 07:43:22 51°17.657 2°52.401 9.1 12.6 5 10.6
2011-06-07 07:43:28 51°17.678 2°52.404 8.8 12.5 6 10.6
2011-06-07 07:43:32 51°17.692 2°52.406 8.8 12.6 5 10.5
2011-06-07 07:43:37 51°17.709 2°52.408 8 12.6 4 10.9
2011-06-07 07:43:43 51°17.73 2°52.41 7.2 12.5 4 11
2011-06-07 07:43:48 51°17.748 2°52.412 6.7 12.6 4 10.9
2011-06-07 07:43:53 51°17.765 2°52.414 6.6 12.6 5 10.6
2011-06-07 07:43:58 51°17.782 2°52.419 9.2 12.5 10 10.6
2011-06-07 07:44:02 51°17.796 2°52.423 12.2 12.5 11 10.7
2011-06-07 07:44:08 51°17.816 2°52.431 14.3 12.5 15 11
2011-06-07 07:44:13 51°17.833 2°52.439 16.9 12.5 16 11
2011-06-07 07:44:18 51°17.849 2°52.448 18.9 12.4 18 10.6
2011-06-07 07:44:22 51°17.863 2°52.455 20.7 12.5 18 10.9
2011-06-07 07:44:27 51°17.879 2°52.464 21.5 12.5 20 10.8
2011-06-07 07:44:33 51°17.898 2°52.475 22.7 12.5 20 10.6
2011-06-07 07:44:38 51°17.915 2°52.485 23.3 12.5 21 11
2011-06-07 07:44:42 51°17.927 2°52.494 24.2 12.5 22 10.9
2011-06-07 07:44:47 51°17.943 2°52.504 24.4 12.5 22 10.9
2011-06-07 07:44:53 51°17.963 2°52.516 24.7 12.6 21 10.8
2011-06-07 07:44:58 51°17.979 2°52.526 24.4 12.6 21 10.8
2011-06-07 07:45:02 51°17.993 2°52.534 24 12.7 21 10.7
2011-06-07 07:45:08 51°18.012 2°52.545 23.7 12.6 21 10.7
2011-06-07 07:45:13 51°18.028 2°52.555 23.6 12.6 21 10.8
2011-06-07 07:45:18 51°18.045 2°52.565 23.3 12.6 20 10.9
2011-06-07 07:45:23 51°18.062 2°52.574 22.4 12.6 19 11.1
2011-06-07 07:45:28 51°18.078 2°52.583 22 12.6 18 11.2
2011-06-07 07:45:33 51°18.095 2°52.592 21.1 12.6 18 11.3
2011-06-07 07:45:38 51°18.111 2°52.6 20.8 12.7 18 11.2
2011-06-07 07:45:42 51°18.125 2°52.607 20.7 12.6 19 11
2011-06-07 07:45:48 51°18.144 2°52.62 22.9 12.6 22 11.4
2011-06-07 07:45:53 51°18.16 2°52.631 24.2 12.7 23 11.4
2011-06-07 07:45:58 51°18.176 2°52.643 26.1 12.6 25 11.4
2011-06-07 07:46:02 51°18.189 2°52.653 27.5 12.6 26 11.1
2011-06-07 07:46:07 51°18.204 2°52.667 30.3 12.5 31 11.3
2011-06-07 07:46:13 51°18.221 2°52.685 33.7 12.5 34 11.3
2011-06-07 07:46:18 51°18.235 2°52.702 36.4 12.6 36 11.5
2011-06-07 07:46:22 51°18.247 2°52.715 38.2 12.6 37 11.3
2011-06-07 07:46:26 51°18.257 2°52.729 39.8 12.5 39 11.1
2011-06-07 07:46:33 51°18.276 2°52.754 41.2 12.5 40 11.3
2011-06-07 07:46:38 51°18.289 2°52.772 42.2 12.6 40 11.3
2011-06-07 07:46:42 51°18.3 2°52.786 43.1 12.6 41 11.5
2011-06-07 07:46:47 51°18.313 2°52.805 43.4 12.5 42 11.4
2011-06-07 07:46:52 51°18.326 2°52.823 43.9 12.6 42 11.3
2011-06-07 07:46:58 51°18.342 2°52.845 43.6 12.5 41 11.4
2011-06-07 07:47:02 51°18.352 2°52.86 43 12.6 40 11.4
2011-06-07 07:47:08 51°18.368 2°52.881 42.6 12.6 40 11.5
2011-06-07 07:47:12 51°18.379 2°52.896 42.7 12.6 40 11.4
2011-06-07 07:47:18 51°18.395 2°52.917 41.8 12.6 39 11.6
2011-06-07 07:47:22 51°18.406 2°52.931 41.7 12.5 40 11.5
2011-06-07 07:47:28 51°18.422 2°52.952 41.9 12.5 39 11.5
2011-06-07 07:47:33 51°18.435 2°52.97 42 12.6 39 11.6
2011-06-07 07:47:38 51°18.449 2°52.988 41.9 12.4 40 11.3
2011-06-07 07:47:42 51°18.459 2°53.002 41.7 12.4 40 11.7
2011-06-07 07:47:47 51°18.473 2°53.02 42 12.5 40 11.7
2011-06-07 07:47:53 51°18.489 2°53.041 42.2 12.5 40 11.8
2011-06-07 07:47:58 51°18.502 2°53.059 42.1 12.4 40 11.4
2011-06-07 07:48:02 51°18.512 2°53.073 41.9 12.4 39 11.7
2011-06-07 07:48:07 51°18.526 2°53.09 41.9 12.5 40 11.4
2011-06-07 07:48:13 51°18.541 2°53.111 41.5 12.3 40 11.3
2011-06-07 07:48:18 51°18.553 2°53.13 42.8 12.3 46 11.7
2011-06-07 07:48:22 51°18.563 2°53.147 46.9 12.2 48 11.8
2011-06-07 07:48:27 51°18.574 2°53.167 49.4 12.2 50 11.7
2011-06-07 07:48:33 51°18.586 2°53.193 52 12.2 52 11.9
2011-06-07 07:48:38 51°18.597 2°53.214 53.7 12.3 53 11.8
2011-06-07 07:48:42 51°18.604 2°53.233 56 12.3 57 11.7
2011-06-07 07:48:47 51°18.613 2°53.255 57.7 12.3 57 11.8
2011-06-07 07:48:52 51°18.622 2°53.279 59.5 12.2 61 11.8
2011-06-07 07:48:58 51°18.632 2°53.307 60.8 12.2 60 11.6
2011-06-07 07:49:02 51°18.638 2°53.326 61.6 12.3 62 11.8
2011-06-07 07:49:07 51°18.647 2°53.35 62.6 12.3 61 11.9
2011-06-07 07:49:12 51°18.654 2°53.374 62.7 12.4 63 11.9
2011-06-07 07:49:18 51°18.664 2°53.403 63 12.3 61 11.7
2011-06-07 07:49:22 51°18.67 2°53.422 63 12.2 63 11.7
2011-06-07 07:49:27 51°18.678 2°53.446 63.2 12.2 62 11.8
2011-06-07 07:49:33 51°18.688 2°53.475 63.1 12.3 62 11.8
2011-06-07 07:49:38 51°18.696 2°53.499 62.8 12.3 61 11.9
2011-06-07 07:49:42 51°18.702 2°53.518 62.6 12.3 61 12
2011-06-07 07:49:47 51°18.711 2°53.541 61.3 12.3 60 12
2011-06-07 07:49:52 51°18.72 2°53.565 61 12.2 60 11.9
2011-06-07 07:49:58 51°18.73 2°53.592 60.3 12.3 59 11.9
2011-06-07 07:50:02 51°18.738 2°53.611 59.5 12.3 58 11.9
2011-06-07 07:50:07 51°18.747 2°53.634 59 12.3 57 11.7
2011-06-07 07:50:13 51°18.758 2°53.661 58.7 12.2 58 11.7
2011-06-07 07:50:18 51°18.767 2°53.684 58.8 12.3 58 11.8
2011-06-07 07:50:22 51°18.774 2°53.703 58.8 12.3 58 11.9
2011-06-07 07:50:28 51°18.785 2°53.73 58.7 12.3 58 11.8
2011-06-07 07:50:33 51°18.794 2°53.754 58.8 12.3 59 12.2
2011-06-07 07:50:38 51°18.803 2°53.777 59.1 12.3 59 11.8
2011-06-07 07:50:42 51°18.81 2°53.796 60.2 12.3 60 11.8
2011-06-07 07:50:47 51°18.818 2°53.819 60.5 12.3 60 12
2011-06-07 07:50:53 51°18.828 2°53.847 61.1 12.3 61 12.1
2011-06-07 07:50:58 51°18.837 2°53.871 61.4 12.3 61 12.1
2011-06-07 07:51:02 51°18.843 2°53.89 61.8 12.3 62 11.9
2011-06-07 07:51:07 51°18.852 2°53.914 62.3 12.3 62 11.9
2011-06-07 07:51:13 51°18.861 2°53.943 63 12.3 62 12.1
2011-06-07 07:51:18 51°18.869 2°53.967 63.6 12.2 63 11.9
2011-06-07 07:51:22 51°18.875 2°53.987 64.5 12.2 64 11.9
2011-06-07 07:51:27 51°18.882 2°54.011 65.6 12.3 64 11.8
2011-06-07 07:51:33 51°18.89 2°54.041 65.9 12.3 66 12
2011-06-07 07:51:38 51°18.897 2°54.066 66.6 12.2 66 11.9
2011-06-07 07:51:42 51°18.903 2°54.085 67.1 12.1 67 11.7
2011-06-07 07:51:47 51°18.909 2°54.11 67.8 12.2 67 12
2011-06-07 07:51:52 51°18.916 2°54.135 67.2 12.2 67 11.8
2011-06-07 07:51:57 51°18.922 2°54.159 67.4 12.2 67 11.8
2011-06-07 07:52:02 51°18.929 2°54.184 67.4 12.2 66 11.9
2011-06-07 07:52:07 51°18.936 2°54.209 67.1 12.1 66 11.8
2011-06-07 07:52:13 51°18.944 2°54.238 66.7 12 66 11.9
2011-06-07 07:52:18 51°18.951 2°54.262 66.2 12.2 65 11.9
2011-06-07 07:52:22 51°18.958 2°54.281 64.8 12.2 63 11.8
2011-06-07 07:52:27 51°18.965 2°54.305 63.8 12.2 62 11.8
2011-06-07 07:52:33 51°18.975 2°54.334 63.2 12.2 61 11.7
2011-06-07 07:52:38 51°18.983 2°54.357 62.5 12.2 61 11.9
2011-06-07 07:52:42 51°18.99 2°54.376 61.5 12.2 60 12.2
2011-06-07 07:52:47 51°18.999 2°54.399 60.9 12.3 61 12.2
2011-06-07 07:52:52 51°19.008 2°54.423 61.1 12.3 58 11.7
2011-06-07 07:52:58 51°19.017 2°54.451 60.5 12.3 61 11.8
2011-06-07 07:53:02 51°19.024 2°54.47 61.3 12.3 60 12
2011-06-07 07:53:07 51°19.032 2°54.494 62 12.3 62 11.8
2011-06-07 07:53:13 51°19.042 2°54.523 62.8 12.3 63 11.9
2011-06-07 07:53:18 51°19.05 2°54.548 63.7 12.3 63 11.9
2011-06-07 07:53:22 51°19.056 2°54.567 64.7 12.4 63 11.9
2011-06-07 07:53:27 51°19.063 2°54.592 65 12.4 64 12
2011-06-07 07:53:32 51°19.071 2°54.617 65.6 12.3 64 11.9
2011-06-07 07:53:38 51°19.08 2°54.646 65.7 12.4 65 11.8
2011-06-07 07:53:42 51°19.086 2°54.666 65.9 12.4 64 11.6
2011-06-07 07:53:47 51°19.093 2°54.691 66 12.4 65 11.9
2011-06-07 07:53:52 51°19.1 2°54.716 66.2 12.4 65 11.9
2011-06-07 07:53:58 51°19.109 2°54.746 66.5 12.4 65 11.8
2011-06-07 07:54:02 51°19.114 2°54.766 66.9 12.4 66 11.9
2011-06-07 07:54:07 51°19.122 2°54.79 67.1 12.3 65 11.9
2011-06-07 07:54:13 51°19.13 2°54.82 66.8 12.4 66 11.9
2011-06-07 07:54:18 51°19.137 2°54.845 66.9 12.3 65 11.9
2011-06-07 07:54:22 51°19.143 2°54.865 67.4 12.3 66 11.8
2011-06-07 07:54:27 51°19.15 2°54.89 67.3 12.3 65 11.8
2011-06-07 07:54:33 51°19.159 2°54.919 66.9 12.3 65 11.8
2011-06-07 07:54:38 51°19.166 2°54.943 66.1 12.3 64 11.9
2011-06-07 07:54:42 51°19.173 2°54.963 65.1 12.3 62 11.8
2011-06-07 07:54:47 51°19.181 2°54.987 64.3 12.3 61 11.7
2011-06-07 07:54:53 51°19.191 2°55.015 63.3 12.2 61 11.8
2011-06-07 07:54:58 51°19.199 2°55.039 62.6 12.3 59 11.8
2011-06-07 07:55:02 51°19.206 2°55.057 61.7 12.3 60 11.9
2011-06-07 07:55:07 51°19.215 2°55.08 61.1 12.3 59 11.9
2011-06-07 07:55:12 51°19.224 2°55.104 61 12.3 60 12
2011-06-07 07:55:18 51°19.234 2°55.132 61 12.3 59 11.9
2011-06-07 07:55:22 51°19.241 2°55.151 61.3 12.3 60 11.7
2011-06-07 07:55:27 51°19.249 2°55.175 61.7 12.2 60 11.9
2011-06-07 07:55:33 51°19.259 2°55.203 62.3 12.3 62 12
2011-06-07 07:55:38 51°19.267 2°55.227 62.8 12.4 62 12.2
2011-06-07 07:55:42 51°19.273 2°55.247 63.6 12.3 63 11.9
2011-06-07 07:55:47 51°19.281 2°55.271 64.4 12.3 63 11.8
2011-06-07 07:55:53 51°19.29 2°55.3 65 12.2 64 11.6
2011-06-07 07:55:58 51°19.297 2°55.325 65.6 12.2 64 11.6
2011-06-07 07:56:02 51°19.303 2°55.345 66.4 12.3 66 11.9
2011-06-07 07:56:07 51°19.31 2°55.37 67 12.3 67 12
2011-06-07 07:56:12 51°19.316 2°55.395 67.5 12.3 67 12.1
2011-06-07 07:56:18 51°19.324 2°55.425 68 12.2 67 11.8
2011-06-07 07:56:22 51°19.329 2°55.445 68.6 12.2 68 11.8
2011-06-07 07:56:27 51°19.335 2°55.47 69.2 12.2 69 11.9
2011-06-07 07:56:33 51°19.343 2°55.5 69.6 12.2 69 11.7
2011-06-07 07:56:38 51°19.348 2°55.526 70.5 12.2 70 11.7
2011-06-07 07:56:42 51°19.353 2°55.546 70.2 12.3 69 11.8
2011-06-07 07:56:47 51°19.359 2°55.571 70.5 12.2 69 11.9
2011-06-07 07:56:53 51°19.367 2°55.602 70.3 12.2 69 11.8
2011-06-07 07:56:58 51°19.373 2°55.627 69.8 12.3 68 11.8
2011-06-07 07:57:02 51°19.378 2°55.647 69.6 12.3 68 11.8
2011-06-07 07:57:07 51°19.385 2°55.672 69.3 12.3 68 11.9
2011-06-07 07:57:13 51°19.392 2°55.702 68.6 12.3 67 11.7
2011-06-07 07:57:18 51°19.4 2°55.727 68.3 12.3 66 11.7
2011-06-07 07:57:22 51°19.405 2°55.746 67.4 12.2 65 11.6
2011-06-07 07:57:28 51°19.414 2°55.775 66.6 12.2 64 11.6
2011-06-07 07:57:32 51°19.42 2°55.795 66 12.3 64 11.6
2011-06-07 07:57:38 51°19.429 2°55.824 65.5 12.2 64 11.8
2011-06-07 07:57:42 51°19.434 2°55.844 65.5 12.2 65 11.7
2011-06-07 07:57:47 51°19.442 2°55.868 66 12.2 65 11.7
2011-06-07 07:57:53 51°19.45 2°55.897 66.3 12.2 65 11.7
2011-06-07 07:57:58 51°19.457 2°55.922 66.6 12.2 66 11.9
2011-06-07 07:58:02 51°19.463 2°55.942 67 12.2 66 11.7
2011-06-07 07:58:08 51°19.471 2°55.971 67.6 12.2 66 11.6
2011-06-07 07:58:13 51°19.477 2°55.996 67.9 12.1 68 11.8
2011-06-07 07:58:18 51°19.484 2°56.021 69 12.2 68 11.8
2011-06-07 07:58:22 51°19.488 2°56.041 69.5 12.2 69 11.7
2011-06-07 07:58:27 51°19.494 2°56.067 70.2 12.3 69 11.6
2011-06-07 07:58:33 51°19.501 2°56.097 70.5 12.2 71 11.6
2011-06-07 07:58:38 51°19.506 2°56.123 71.8 12.1 72 11.5
2011-06-07 07:58:42 51°19.511 2°56.143 72.4 12.2 72 11.4
2011-06-07 07:58:47 51°19.515 2°56.169 72.8 12.2 72 11.5
2011-06-07 07:58:53 51°19.522 2°56.2 72.9 12.2 72 11.5
2011-06-07 07:58:58 51°19.527 2°56.225 73.1 12.2 71 11.4
2011-06-07 07:59:02 51°19.532 2°56.246 72.7 12.2 71 11.5
2011-06-07 07:59:07 51°19.538 2°56.271 72.2 12.3 70 11.4
2011-06-07 07:59:12 51°19.543 2°56.297 72.3 12.2 71 11.4
2011-06-07 07:59:18 51°19.55 2°56.327 72.1 12.2 70 11.6
2011-06-07 07:59:22 51°19.554 2°56.348 71.7 12.2 71 11.8
2011-06-07 07:59:27 51°19.561 2°56.373 71.4 12.2 69 11.5
2011-06-07 07:59:33 51°19.568 2°56.403 71 12.2 70 11.7
2011-06-07 07:59:38 51°19.574 2°56.429 70.4 12.3 68 11.7
2011-06-07 07:59:42 51°19.579 2°56.449 70 12.3 69 11.6
2011-06-07 07:59:47 51°19.586 2°56.474 69.9 12.3 67 11.4
2011-06-07 07:59:53 51°19.593 2°56.504 69.3 12.2 67 11.3
2011-06-07 07:59:58 51°19.6 2°56.529 68.5 12.2 67 11.5
2011-06-07 08:00:02 51°19.605 2°56.549 68.4 12.2 67 11.3
2011-06-07 08:00:07 51°19.612 2°56.574 68.3 12.3 67 11.5
2011-06-07 08:00:12 51°19.619 2°56.598 68.2 12.2 65 11.3
2011-06-07 08:00:18 51°19.628 2°56.628 67.8 12.2 66 11.3
2011-06-07 08:00:22 51°19.633 2°56.648 67.6 12.2 66 11.4
2011-06-07 08:00:28 51°19.641 2°56.678 68.1 12.2 67 11.4
2011-06-07 08:00:32 51°19.647 2°56.698 68.1 12.3 67 11.3
2011-06-07 08:00:38 51°19.654 2°56.728 69 12.2 68 11.3
2011-06-07 08:00:42 51°19.659 2°56.748 69.8 12.2 70 11.3
2011-06-07 08:00:47 51°19.665 2°56.774 71.5 12.3 70 11.3
2011-06-07 08:00:53 51°19.671 2°56.804 71.9 12.3 70 11.1
2011-06-07 08:00:58 51°19.676 2°56.83 72.8 12.2 72 11.2
2011-06-07 08:01:02 51°19.681 2°56.851 72.8 12.2 71 11.3
2011-06-07 08:01:08 51°19.687 2°56.882 72.7 12.2 72 11.4
2011-06-07 08:01:13 51°19.692 2°56.907 73.3 12.2 72 11.3
2011-06-07 08:01:18 51°19.698 2°56.933 73.7 12.3 72 11.4
2011-06-07 08:01:22 51°19.701 2°56.954 74.2 12.3 74 11.5
2011-06-07 08:01:27 51°19.706 2°56.98 74.5 12.3 73 11.4
2011-06-07 08:01:33 51°19.712 2°57.012 74.6 12.2 73 11.3
2011-06-07 08:01:38 51°19.717 2°57.038 74.7 12.2 73 11.1
2011-06-07 08:01:42 51°19.721 2°57.058 74.8 12.3 73 11.2
2011-06-07 08:01:47 51°19.726 2°57.084 74.7 12.3 73 11.2
2011-06-07 08:01:53 51°19.732 2°57.115 73.8 12.3 71 11.3
2011-06-07 08:01:58 51°19.738 2°57.141 73.4 12.2 73 11.2
2011-06-07 08:02:02 51°19.742 2°57.162 73.7 12.2 71 11.2
2011-06-07 08:02:07 51°19.748 2°57.187 72.3 12.2 70 11.1
2011-06-07 08:02:13 51°19.756 2°57.217 71.2 12.2 67 11
2011-06-07 08:02:18 51°19.762 2°57.242 70 12.2 68 11.1
2011-06-07 08:02:22 51°19.767 2°57.262 69.2 12.2 67 11.3
2011-06-07 08:02:27 51°19.775 2°57.285 68.5 12.2 67 11.3
2011-06-07 08:02:33 51°19.783 2°57.315 68.2 12.3 65 11.2
2011-06-07 08:02:38 51°19.79 2°57.341 67.7 12.2 66 11.2
2011-06-07 08:02:42 51°19.795 2°57.361 67.7 12.2 65 11.1
2011-06-07 08:02:47 51°19.802 2°57.386 67.6 12.2 66 11.3
2011-06-07 08:02:53 51°19.811 2°57.415 67.1 12.3 65 11.3
2011-06-07 08:02:58 51°19.818 2°57.44 67 12.3 67 11.3
2011-06-07 08:03:02 51°19.824 2°57.459 67.3 12.2 65 11.3
2011-06-07 08:03:07 51°19.83 2°57.484 67.7 12.2 67 11.1
2011-06-07 08:03:13 51°19.838 2°57.514 68.5 12.2 67 11.2
2011-06-07 08:03:18 51°19.845 2°57.539 69 12.2 69 11.1
2011-06-07 08:03:22 51°19.849 2°57.56 70.5 12.2 70 11.3
2011-06-07 08:03:27 51°19.855 2°57.585 71.6 12.2 71 11.2
2011-06-07 08:03:32 51°19.86 2°57.611 72.7 12.2 72 11.2
2011-06-07 08:03:38 51°19.866 2°57.642 73.6 12.2 74 11.2
2011-06-07 08:03:42 51°19.871 2°57.662 74.1 12.2 72 10.9
2011-06-07 08:03:47 51°19.875 2°57.688 74.2 12.2 73 11.1
2011-06-07 08:03:53 51°19.881 2°57.719 74.2 12.1 73 11.2
2011-06-07 08:03:58 51°19.887 2°57.744 73.9 12.1 72 11.1
2011-06-07 08:04:02 51°19.891 2°57.765 73.4 12.1 72 11.3
2011-06-07 08:04:08 51°19.898 2°57.795 72.8 12.2 70 11.1
2011-06-07 08:04:13 51°19.903 2°57.82 71.9 12.2 70 11.2
2011-06-07 08:04:18 51°19.91 2°57.845 71.1 12.2 67 11.1
2011-06-07 08:04:22 51°19.915 2°57.865 69.6 12.1 69 10.8
2011-06-07 08:04:27 51°19.921 2°57.89 70 12.2 67 10.8
2011-06-07 08:04:33 51°19.929 2°57.92 69.8 12.2 68 11
2011-06-07 08:04:38 51°19.936 2°57.944 69.1 12.1 66 11
2011-06-07 08:04:42 51°19.941 2°57.964 69 12.1 67 10.9
2011-06-07 08:04:47 51°19.948 2°57.989 68.7 12.2 67 11
2011-06-07 08:04:53 51°19.956 2°58.018 68.4 12.2 66 10.8
2011-06-07 08:04:58 51°19.962 2°58.043 68.3 12.1 67 10.8
2011-06-07 08:05:02 51°19.968 2°58.063 68.5 12.1 67 10.9
2011-06-07 08:05:07 51°19.974 2°58.088 68.9 12.2 67 10.8
2011-06-07 08:05:13 51°19.981 2°58.118 69.7 12.2 69 10.9
2011-06-07 08:05:18 51°19.987 2°58.143 70.3 12.1 70 11
2011-06-07 08:05:22 51°19.992 2°58.164 71.8 12.2 70 11
2011-06-07 08:05:27 51°19.998 2°58.189 71.9 12.1 71 10.9
2011-06-07 08:05:32 51°20.002 2°58.215 73.2 12.2 72 11
2011-06-07 08:05:38 51°20.009 2°58.245 73.6 12.1 73 10.9
2011-06-07 08:05:42 51°20.012 2°58.266 74.6 12.2 73 10.9
2011-06-07 08:05:47 51°20.017 2°58.292 74.4 12.1 73 10.9
2011-06-07 08:05:53 51°20.023 2°58.323 74.7 12.1 74 10.9
2011-06-07 08:05:58 51°20.028 2°58.348 74.7 12.1 73 10.9
2011-06-07 08:06:02 51°20.031 2°58.369 74.7 12.1 74 10.8
2011-06-07 08:06:07 51°20.037 2°58.394 74.6 12.1 72 10.8
2011-06-07 08:06:13 51°20.043 2°58.425 73.8 12.1 72 10.6
2011-06-07 08:06:18 51°20.048 2°58.45 73.3 12.1 71 10.7
2011-06-07 08:06:22 51°20.053 2°58.47 72.4 12.1 69 10.6
2011-06-07 08:06:27 51°20.059 2°58.496 71.8 12.2 68 10.6
2011-06-07 08:06:32 51°20.065 2°58.521 70.5 12.2 69 10.7
2011-06-07 08:06:38 51°20.073 2°58.551 70.2 12.2 67 10.7
2011-06-07 08:06:42 51°20.079 2°58.571 69.2 12.2 67 10.7
2011-06-07 08:06:47 51°20.085 2°58.596 69 12.3 67 10.8
2011-06-07 08:06:53 51°20.094 2°58.626 68.5 12.3 66 10.6
2011-06-07 08:06:58 51°20.101 2°58.65 68.1 12.3 66 10.7
2011-06-07 08:07:02 51°20.106 2°58.671 68.4 12.3 66 10.6
2011-06-07 08:07:08 51°20.114 2°58.701 68.8 12.3 67 10.7
2011-06-07 08:07:13 51°20.12 2°58.726 69.5 12.3 68 10.7
2011-06-07 08:07:18 51°20.126 2°58.752 70.6 12.3 70 10.8
2011-06-07 08:07:22 51°20.131 2°58.772 71.8 12.3 70 10.7
2011-06-07 08:07:27 51°20.137 2°58.798 72.4 12.3 71 10.7
2011-06-07 08:07:33 51°20.143 2°58.829 73.3 12.3 72 10.5
2011-06-07 08:07:38 51°20.149 2°58.855 73.7 12.3 71 10.5
2011-06-07 08:07:42 51°20.153 2°58.876 73.8 12.2 73 10.5
2011-06-07 08:07:47 51°20.158 2°58.902 74.8 12.3 73 10.6
2011-06-07 08:07:53 51°20.164 2°58.933 74.2 12.3 72 10.4
2011-06-07 08:07:58 51°20.169 2°58.959 74.3 12.2 73 10.5
2011-06-07 08:08:02 51°20.173 2°58.979 74.4 12.2 73 10.7
2011-06-07 08:08:07 51°20.179 2°59.005 74.1 12.2 70 10.6
2011-06-07 08:08:13 51°20.186 2°59.035 72.7 12.2 70 10.7
2011-06-07 08:08:18 51°20.192 2°59.06 71.7 12.2 69 10.7
2011-06-07 08:08:22 51°20.198 2°59.08 70.4 12.2 66 10.5
2011-06-07 08:08:27 51°20.204 2°59.105 69 12.2 65 10.6
2011-06-07 08:08:32 51°20.212 2°59.129 67.2 12.2 65 10.7
2011-06-07 08:08:38 51°20.221 2°59.158 67.4 12.3 63 10.6
2011-06-07 08:08:42 51°20.227 2°59.178 66.1 12.2 63 10.7
2011-06-07 08:08:47 51°20.235 2°59.202 65.3 12.2 62 10.5
2011-06-07 08:08:53 51°20.244 2°59.231 64.9 12.2 64 10.5
2011-06-07 08:08:58 51°20.252 2°59.254 65.1 12.3 61 10.5
2011-06-07 08:09:02 51°20.258 2°59.274 64.5 12.3 63 10.6
2011-06-07 08:09:07 51°20.266 2°59.298 64.5 12.2 61 10.5
2011-06-07 08:09:13 51°20.276 2°59.326 64.4 12.2 63 10.7
2011-06-07 08:09:18 51°20.284 2°59.35 64.5 12.3 62 10.6
2011-06-07 08:09:22 51°20.29 2°59.37 64.5 12.2 63 10.5
2011-06-07 08:09:27 51°20.298 2°59.394 65.1 12.2 63 10.5
2011-06-07 08:09:32 51°20.305 2°59.418 65.9 12.2 65 10.5
2011-06-07 08:09:38 51°20.313 2°59.448 67.3 12.2 66 10.6
2011-06-07 08:09:42 51°20.318 2°59.468 68.4 12.2 68 10.7
2011-06-07 08:09:47 51°20.325 2°59.493 69.5 12.2 68 10.5
2011-06-07 08:09:53 51°20.332 2°59.523 70.1 12.2 70 10.5
2011-06-07 08:09:58 51°20.338 2°59.549 71.7 12.2 70 10.5
2011-06-07 08:10:02 51°20.342 2°59.569 72.3 12.2 71 10.6
2011-06-07 08:10:07 51°20.347 2°59.595 73.3 12.2 72 10.7
2011-06-07 08:10:13 51°20.354 2°59.625 73.7 12.1 72 10.4
2011-06-07 08:10:18 51°20.359 2°59.651 73.8 12.1 72 10.5
2011-06-07 08:10:22 51°20.363 2°59.671 74.1 12.1 72 10.4
2011-06-07 08:10:27 51°20.368 2°59.697 74.3 12.2 72 10.4
2011-06-07 08:10:32 51°20.373 2°59.723 74.6 12.2 72 10.4
2011-06-07 08:10:38 51°20.38 2°59.753 74.4 12.2 71 10.3
2011-06-07 08:10:42 51°20.384 2°59.774 73.4 12.1 71 10.5
2011-06-07 08:10:47 51°20.39 2°59.799 73.1 12.1 71 10.3
2011-06-07 08:10:53 51°20.396 2°59.83 73.5 12.2 72 10.5
2011-06-07 08:10:58 51°20.401 2°59.855 73.6 12.1 71 10.4
2011-06-07 08:11:02 51°20.405 2°59.876 73.9 12.1 73 10.4
2011-06-07 08:11:07 51°20.411 2°59.901 73.5 12.1 71 10.3
2011-06-07 08:11:13 51°20.417 2°59.932 73.6 12.1 71 10.3
2011-06-07 08:11:18 51°20.423 2°59.957 72.7 12.1 68 10.3
2011-06-07 08:11:22 51°20.428 2°59.976 71.2 12.1 67 10.3
2011-06-07 08:11:28 51°20.436 3°0.006 70.4 12.1 67 10.6
2011-06-07 08:11:33 51°20.444 3°0.03 68.4 12 64 10.3
2011-06-07 08:11:38 51°20.45 3°0.054 68.2 12.1 66 10.3
2011-06-07 08:11:42 51°20.457 3°0.073 67 12.1 62 10.5
2011-06-07 08:11:47 51°20.463 3°0.097 66.3 12.1 65 10.6
2011-06-07 08:11:52 51°20.471 3°0.121 66.6 12 63 10.4
2011-06-07 08:11:58 51°20.479 3°0.15 66.3 12 65 10.3
2011-06-07 08:12:02 51°20.486 3°0.17 66.8 12.1 64 10.4
2011-06-07 08:12:07 51°20.493 3°0.194 66.9 12 64 10.3
2011-06-07 08:12:12 51°20.5 3°0.218 67.1 12 65 10.5
2011-06-07 08:12:18 51°20.509 3°0.246 66.8 12.1 64 10.6
2011-06-07 08:12:22 51°20.515 3°0.266 66.6 12.2 64 10.5
2011-06-07 08:12:27 51°20.522 3°0.29 66.9 12.1 65 10.4
2011-06-07 08:12:32 51°20.529 3°0.315 68 12.1 67 10.5
2011-06-07 08:12:38 51°20.537 3°0.344 69 12.1 67 10.5
2011-06-07 08:12:42 51°20.541 3°0.364 70.2 12 69 10.7
2011-06-07 08:12:48 51°20.548 3°0.395 71.4 12 70 10.3
2011-06-07 08:12:53 51°20.553 3°0.42 72.9 12.2 71 10.5
2011-06-07 08:12:58 51°20.559 3°0.445 72.7 12.1 71 10.6
2011-06-07 08:13:02 51°20.563 3°0.465 73.3 12 71 10.5
2011-06-07 08:13:08 51°20.57 3°0.495 73.6 12 71 10.5
2011-06-07 08:13:12 51°20.574 3°0.516 73.8 12.1 71 10.4
2011-06-07 08:13:18 51°20.58 3°0.546 73.8 12.1 71 10.5
2011-06-07 08:13:22 51°20.585 3°0.566 73.8 12.1 72 10.4
2011-06-07 08:13:26 51°20.589 3°0.587 74 12 71 10.4
2011-06-07 08:13:33 51°20.596 3°0.622 74 12.1 72 10.5
2011-06-07 08:13:38 51°20.602 3°0.647 73.7 12.1 70 10.5
2011-06-07 08:13:42 51°20.607 3°0.667 72.2 12 69 10.3
2011-06-07 08:13:46 51°20.612 3°0.687 71.4 12.1 68 10.4
2011-06-07 08:13:52 51°20.62 3°0.716 70.2 12 67 10.4
2011-06-07 08:13:58 51°20.628 3°0.746 69.5 12 66 10.2
2011-06-07 08:14:02 51°20.633 3°0.765 68.9 12 66 10.4
2011-06-07 08:14:07 51°20.64 3°0.789 68 12 66 10.5
2011-06-07 08:14:12 51°20.647 3°0.814 68.1 12.1 65 10.3
2011-06-07 08:14:18 51°20.655 3°0.843 68.2 12.1 65 10.3
2011-06-07 08:14:22 51°20.661 3°0.862 68.1 12.1 65 10.4
2011-06-07 08:14:27 51°20.668 3°0.887 68.2 12.1 66 10.4
2011-06-07 08:14:33 51°20.676 3°0.916 68.3 12 65 10.1
2011-06-07 08:14:38 51°20.683 3°0.94 68.5 12 67 10.4
2011-06-07 08:14:42 51°20.688 3°0.96 69 12 68 10.5
2011-06-07 08:14:48 51°20.695 3°0.99 70.1 12 69 10.5
2011-06-07 08:14:53 51°20.701 3°1.015 71.5 12 70 10.4
2011-06-07 08:14:58 51°20.706 3°1.04 72.8 11.9 71 10.5
2011-06-07 08:15:02 51°20.71 3°1.06 73.7 11.9 73 10.6
2011-06-07 08:15:07 51°20.715 3°1.086 74.6 12 73 10.6
2011-06-07 08:15:12 51°20.72 3°1.111 74.6 11.9 72 10.3
2011-06-07 08:15:18 51°20.726 3°1.141 75.1 11.8 74 10.2
2011-06-07 08:15:22 51°20.73 3°1.161 75.1 11.9 72 10.3
2011-06-07 08:15:26 51°20.734 3°1.181 74.6 11.9 73 10.5
2011-06-07 08:15:33 51°20.741 3°1.217 74.6 11.9 72 10.4
2011-06-07 08:15:38 51°20.746 3°1.241 74.2 11.8 71 10.3
2011-06-07 08:15:42 51°20.751 3°1.261 73.4 11.8 71 10.3
2011-06-07 08:15:47 51°20.757 3°1.286 72.7 11.8 69 10.4
2011-06-07 08:15:52 51°20.763 3°1.31 71.4 11.8 68 10.2
2011-06-07 08:15:58 51°20.77 3°1.339 70.3 11.8 67 10.3
2011-06-07 08:16:02 51°20.776 3°1.358 69.3 11.8 66 10.1
2011-06-07 08:16:07 51°20.782 3°1.382 68.7 11.8 66 10.3
2011-06-07 08:16:12 51°20.789 3°1.406 68.2 11.8 66 10.3
2011-06-07 08:16:18 51°20.798 3°1.434 68.5 11.8 65 9.9
2011-06-07 08:16:22 51°20.802 3°1.454 68.5 11.8 66 10.1
2011-06-07 08:16:27 51°20.81 3°1.477 68.3 11.9 65 10.1
2011-06-07 08:16:32 51°20.816 3°1.501 67.8 11.8 65 10
2011-06-07 08:16:38 51°20.824 3°1.53 68.2 11.8 67 10.2
2011-06-07 08:16:42 51°20.83 3°1.549 68.5 11.8 65 10.2
2011-06-07 08:16:47 51°20.836 3°1.573 68.3 11.8 67 10.2
2011-06-07 08:16:53 51°20.844 3°1.602 69 11.8 67 10.2
2011-06-07 08:16:58 51°20.85 3°1.626 69.1 11.8 68 10.1
2011-06-07 08:17:02 51°20.855 3°1.646 70.5 11.8 70 10.2
2011-06-07 08:17:07 51°20.86 3°1.671 71.7 11.7 71 10
2011-06-07 08:17:13 51°20.866 3°1.701 73.4 11.8 72 10.1
2011-06-07 08:17:18 51°20.871 3°1.725 73.4 11.8 72 10.1
2011-06-07 08:17:22 51°20.875 3°1.745 73.9 11.7 73 10
2011-06-07 08:17:28 51°20.881 3°1.775 74.9 11.8 73 10.2
2011-06-07 08:17:32 51°20.885 3°1.795 74.5 11.8 73 10.1
2011-06-07 08:17:38 51°20.89 3°1.825 74.9 11.8 74 10.3
2011-06-07 08:17:42 51°20.895 3°1.845 74.4 11.7 72 10.2
2011-06-07 08:17:48 51°20.9 3°1.875 75.1 11.8 73 10.2
2011-06-07 08:17:52 51°20.904 3°1.894 74.7 11.9 73 10.4
2011-06-07 08:17:58 51°20.91 3°1.924 74.3 11.8 70 10.2
2011-06-07 08:18:02 51°20.914 3°1.944 73.3 11.7 71 10
2011-06-07 08:18:06 51°20.919 3°1.963 72.9 11.7 69 10.2
2011-06-07 08:18:13 51°20.927 3°1.997 71.6 11.8 69 10.2
2011-06-07 08:18:18 51°20.933 3°2.021 70.7 11.7 67 10.4
2011-06-07 08:18:22 51°20.938 3°2.04 69.8 11.7 68 10.2
2011-06-07 08:18:27 51°20.944 3°2.064 69.7 11.7 66 10.3
2011-06-07 08:18:32 51°20.951 3°2.088 68.6 11.7 66 10.3
2011-06-07 08:18:38 51°20.959 3°2.116 68.5 11.7 65 10.3
2011-06-07 08:18:42 51°20.964 3°2.135 68.2 11.7 67 10.5
2011-06-07 08:18:47 51°20.971 3°2.159 68.4 11.7 66 10.5
2011-06-07 08:18:52 51°20.977 3°2.183 68.3 11.7 66 10.5
2011-06-07 08:18:57 51°20.984 3°2.207 68.6 11.7 67 10.6
2011-06-07 08:19:02 51°20.99 3°2.23 68.8 11.7 67 10.7
2011-06-07 08:19:08 51°20.998 3°2.259 69 11.7 67 10.6
2011-06-07 08:19:13 51°21.004 3°2.283 69.6 11.7 68 10.7
2011-06-07 08:19:18 51°21.009 3°2.307 70.5 11.7 70 10.7
2011-06-07 08:19:22 51°21.014 3°2.327 71.8 11.7 71 10.7
2011-06-07 08:19:28 51°21.019 3°2.356 73 11.6 72 10.6
2011-06-07 08:19:33 51°21.024 3°2.381 73.5 11.6 72 10.7
2011-06-07 08:19:38 51°21.029 3°2.405 74.1 11.6 72 10.7
2011-06-07 08:19:42 51°21.033 3°2.425 74.4 11.6 73 10.8
2011-06-07 08:19:48 51°21.039 3°2.454 74.7 11.6 73 10.7
2011-06-07 08:19:52 51°21.042 3°2.474 74.8 11.6 74 10.7
2011-06-07 08:19:58 51°21.048 3°2.504 75.2 11.7 72 10.7
2011-06-07 08:20:02 51°21.051 3°2.524 74.8 11.7 73 10.7
2011-06-07 08:20:07 51°21.056 3°2.548 74.5 11.6 71 10.6
2011-06-07 08:20:13 51°21.063 3°2.577 73.8 11.7 72 10.6
2011-06-07 08:20:18 51°21.068 3°2.602 73.4 11.7 70 10.5
2011-06-07 08:20:22 51°21.072 3°2.621 72.7 11.7 72 10.6
2011-06-07 08:20:27 51°21.078 3°2.646 72.7 11.7 69 10.5
2011-06-07 08:20:33 51°21.084 3°2.675 72.3 11.6 72 10.5
2011-06-07 08:20:38 51°21.09 3°2.699 73 11.7 70 10.7
2011-06-07 08:20:42 51°21.094 3°2.719 72.7 11.6 72 10.6
2011-06-07 08:20:48 51°21.1 3°2.748 73.2 11.6 71 10.5
2011-06-07 08:20:52 51°21.104 3°2.768 73.1 11.7 70 10.6
2011-06-07 08:20:58 51°21.111 3°2.797 72.7 11.7 71 10.7
2011-06-07 08:21:02 51°21.116 3°2.816 72.2 11.7 69 10.1
2011-06-07 08:21:08 51°21.122 3°2.846 72.3 11.7 71 10.5
2011-06-07 08:21:12 51°21.127 3°2.865 72.4 11.7 69 10.3
2011-06-07 08:21:18 51°21.133 3°2.894 72 11.6 72 10.7
2011-06-07 08:21:22 51°21.138 3°2.913 72.4 11.6 69 10.7
2011-06-07 08:21:28 51°21.144 3°2.943 72.4 11.6 72 10.2
2011-06-07 08:21:32 51°21.148 3°2.962 72.7 11.6 69 10.6
2011-06-07 08:21:38 51°21.154 3°2.991 72.6 11.6 72 10.3
2011-06-07 08:21:42 51°21.159 3°3.01 72.8 11.7 70 10.9
2011-06-07 08:21:48 51°21.165 3°3.04 72.6 11.7 71 10.2
2011-06-07 08:21:52 51°21.169 3°3.059 72.7 11.6 71 10.7
2011-06-07 08:21:58 51°21.175 3°3.089 73.3 11.6 74 10.8
2011-06-07 08:22:02 51°21.18 3°3.108 74 11.7 70 10
2011-06-07 08:22:08 51°21.186 3°3.138 73 11.6 72 10.4
2011-06-07 08:22:13 51°21.192 3°3.162 72.9 11.6 70 10.5
2011-06-07 08:22:18 51°21.198 3°3.186 71.8 11.6 68 10.3
2011-06-07 08:22:22 51°21.202 3°3.205 70.6 11.7 67 10.5
2011-06-07 08:22:27 51°21.21 3°3.228 68.5 11.7 65 10.7
2011-06-07 08:22:32 51°21.216 3°3.252 68.8 11.7 66 10.5
2011-06-07 08:22:38 51°21.225 3°3.28 68.3 11.7 64 10.9
2011-06-07 08:22:42 51°21.23 3°3.299 67.6 11.7 66 10.7
2011-06-07 08:22:48 51°21.238 3°3.327 67.5 11.7 64 10.5
2011-06-07 08:22:53 51°21.245 3°3.35 67.2 11.7 65 10.9